Cairo, OH (45820)

6:52 AM EDT on August 31, 2015 (GMT -0400)
West side Lima OH | | Change Station
CLOSE
Current Station
Personal Weather Station
Location: Lima, OH
Elevation: 870 ft
Nearby Weather Stations
Active Advisory: Special Statement

Elev 870 ft 40.75 °N, 84.13 °W | Updated 8 minutes ago

Clear
Clear
71.0 °F
Feels Like 71.0 °F
N
0.0
Wind Variable Wind from WSW
Gusts 0.0 mph

Today
High -- | Low -- °F
--% Chance of Precip.
Yesterday
High -- | Low -- °F
Precip. -- in
7:02 AM 8:10 PM
Waning Gibbous, 96% visible
Pressure 30.06 in
Visibility 5.0 miles
Clouds Clear
Dew Point 70 °F
Humidity 95%
Rainfall 0.00 in
Snow Depth Not available.
UV 0 out of 12
Pollen 8.40 out of 12
Air Quality Not available.
Flu Activity Not available.
METAR KAOH 310953Z AUTO 16005KT 5SM BR CLR 18/18 A3007 RMK AO2 SLP177 T01830178
Pressure 30.06 in
Visibility 5.0 miles
Clouds Clear
Dew Point 70 °F
Humidity 95%
Rainfall 0.00 in
Snow Depth Not available.
UV 0 out of 12
Pollen 8.40 out of 12
Air Quality Not available.
Flu Activity Not available.
METAR KAOH 310953Z AUTO 16005KT 5SM BR CLR 18/18 A3007 RMK AO2 SLP177 T01830178

10-Day Weather Forecast

×

Almanac

Astronomy

Aug. 31, 2015 Rise Set
Actual Time
Civil Twilight
Nautical Twilight
Astronomical Twilight
Moon
Length of Visible Light
Length of Day
Tomorrow will be .
, % of the Moon is Illuminated

Today's Extremes

State Highs State Lows

Community

WunderPhotos

Upload Photos

1,851,227 photos uploaded!

WunderBlogs® & News

Nearby

Air Quality

  Air Quality AQ Index Pollutant
Not available.

Snow Depth

Station Depth Elevation

Earthquake Activity

City Distance Mag. Time & Date
Minimum magnitude displayed is 2.5.

Coastal Water Temperatures

Place Temperature

Stations

Nearby Weather Stations

Station Location Temp. Windchill Dew Point Humidity Wind Precip. Elev Updated Type
                   
Special Statement
Statement as of 6:34 AM EDT on August 31, 2015

... Areas of fog this morning...

Fog will continue to impact the area through mid morning.
Localized visibilities of one quarter of a mile or less will be
possible through 9 am EDT... with visibilities gradually improving
after 9 am EDT. Due to the patchy nature of the dense
fog... motorists should be prepared for rapidly changing
visibilities over short distances early this morning.


634 am EDT Mon Aug 31 2015

... Areas of fog this morning...

Fog will continue to impact the area through mid morning.
Localized visibilities of one quarter of a mile or less will be
possible through 9 am EDT... with visibilities gradually improving
after 9 am EDT. Due to the patchy nature of the dense
fog... motorists should be prepared for rapidly changing
visibilities over short distances early this morning.